Time;durP1;ratioP1;P1;durP2;ratioP2;P2;SDS_P1;SDS_P2;PMS_P1;PMS_P2;Temp;Humidity;BMP_temperature;BMP_pressure;BME280_temperature;BME280_humidity;BME280_pressure;Samples;Min_cycle;Max_cycle;Signal;HPM_P1;HPM_P2
2022/08/02 00:00:14;;;;;;;6.65;4.93;;;16.10;99.90;;;;;;4999717;28;20274;-66
2022/08/02 00:02:44;;;;;;;7.95;5.55;;;16.10;99.90;;;;;;5017404;28;20330;-67
2022/08/02 00:05:11;;;;;;;8.40;5.40;;;16.00;99.90;;;;;;5017314;28;20196;-67
2022/08/02 00:07:37;;;;;;;8.77;5.00;;;16.00;99.90;;;;;;5016741;28;20176;-67
2022/08/02 00:10:05;;;;;;;6.53;5.07;;;15.90;99.90;;;;;;4999265;28;20663;-67
2022/08/02 00:12:31;;;;;;;6.68;4.57;;;15.90;99.90;;;;;;5032094;28;20187;-67
2022/08/02 00:14:57;;;;;;;6.90;4.80;;;15.90;99.90;;;;;;5016797;28;20199;-67
2022/08/02 00:17:23;;;;;;;6.60;4.75;;;16.00;99.90;;;;;;4999167;28;20183;-67
2022/08/02 00:19:49;;;;;;;7.38;5.20;;;15.90;99.90;;;;;;5016832;28;20180;-67
2022/08/02 00:22:15;;;;;;;7.53;5.22;;;15.90;99.90;;;;;;5016506;28;20211;-67
2022/08/02 00:24:40;;;;;;;8.93;5.00;;;16.00;99.90;;;;;;5016510;28;20172;-67
2022/08/02 00:27:07;;;;;;;12.50;5.35;;;16.00;99.90;;;;;;5016557;28;20168;-67
2022/08/02 00:29:34;;;;;;;7.95;5.40;;;16.00;99.90;;;;;;4998971;28;20625;-66
2022/08/02 00:31:59;;;;;;;9.18;5.45;;;16.00;99.90;;;;;;5016416;28;20234;-67
2022/08/02 00:34:25;;;;;;;6.05;4.97;;;16.00;99.90;;;;;;4998708;28;20637;-66
2022/08/02 00:36:51;;;;;;;8.10;5.30;;;15.90;99.90;;;;;;5016181;28;20249;-66
2022/08/02 00:39:17;;;;;;;11.48;5.63;;;15.90;99.90;;;;;;5016306;28;20561;-67
2022/08/02 00:41:48;;;;;;;7.00;4.72;;;15.90;99.90;;;;;;5016292;28;20338;-67
2022/08/02 00:44:15;;;;;;;8.80;5.03;;;15.80;99.90;;;;;;5016221;28;20179;-67
2022/08/02 00:46:41;;;;;;;12.82;5.47;;;15.80;99.90;;;;;;5016127;28;20203;-67
2022/08/02 00:49:07;;;;;;;7.07;5.38;;;15.70;99.90;;;;;;5016130;28;20184;-67
2022/08/02 00:51:32;;;;;;;8.50;4.93;;;15.70;99.90;;;;;;4998224;28;20187;-67
2022/08/02 00:53:58;;;;;;;6.90;6.20;;;15.60;99.90;;;;;;5015994;28;20182;-67
2022/08/02 00:56:24;;;;;;;8.82;5.35;;;15.60;99.90;;;;;;5015744;28;20238;-66
2022/08/02 00:58:50;;;;;;;6.53;5.32;;;15.60;99.90;;;;;;4998321;28;20559;-67
2022/08/02 01:01:15;;;;;;;7.07;4.82;;;15.50;99.90;;;;;;5015298;28;20706;-67
2022/08/02 01:03:41;;;;;;;7.55;5.07;;;15.50;99.90;;;;;;5016311;28;20172;-66
2022/08/02 01:06:07;;;;;;;6.80;4.70;;;15.50;99.90;;;;;;4998029;28;20200;-67
2022/08/02 01:08:33;;;;;;;6.13;4.80;;;15.40;99.90;;;;;;5016255;28;20210;-67
2022/08/02 01:10:59;;;;;;;6.80;5.60;;;15.40;99.90;;;;;;5015673;28;20168;-66
2022/08/02 01:13:26;;;;;;;8.07;4.95;;;15.40;99.90;;;;;;4997996;28;20184;-67
2022/08/02 01:15:59;;;;;;;8.60;5.25;;;15.20;99.90;;;;;;5015652;28;20202;-67
2022/08/02 01:18:37;;;;;;;9.43;5.35;;;15.30;99.90;;;;;;5015599;28;20302;-66
2022/08/02 01:21:08;;;;;;;7.90;5.35;;;15.30;99.90;;;;;;5015120;28;20640;-66
2022/08/02 01:24:22;;;;;;;5.18;4.65;;;15.30;99.90;;;;;;4997861;28;20182;-66
2022/08/02 01:27:21;;;;;;;6.45;4.93;;;15.30;99.90;;;;;;5010163;28;20211;-66
2022/08/02 01:29:54;;;;;;;7.10;5.32;;;15.30;99.90;;;;;;5015410;28;20656;-66
2022/08/02 01:32:28;;;;;;;8.48;5.32;;;15.20;99.90;;;;;;5015362;28;20160;-66
2022/08/02 01:35:12;;;;;;;8.50;5.28;;;15.20;99.90;;;;;;5015058;28;20203;-66
2022/08/02 01:37:48;;;;;;;6.68;5.80;;;15.20;99.90;;;;;;5015011;28;20192;-66
2022/08/02 01:40:28;;;;;;;6.55;5.18;;;15.10;99.90;;;;;;5015418;28;20582;-66
2022/08/02 01:42:56;;;;;;;9.00;4.85;;;15.10;99.90;;;;;;5015343;28;20195;-66
2022/08/02 01:45:25;;;;;;;7.18;5.03;;;15.10;99.90;;;;;;5014874;28;20264;-66
2022/08/02 01:47:52;;;;;;;5.82;4.75;;;15.10;99.90;;;;;;5014897;28;20561;-66
2022/08/02 01:50:25;;;;;;;6.25;5.07;;;15.00;99.90;;;;;;5014814;28;20206;-66
2022/08/02 01:52:55;;;;;;;8.23;5.25;;;15.00;99.90;;;;;;5014799;28;20684;-66
2022/08/02 01:55:34;;;;;;;7.00;5.00;;;15.00;99.90;;;;;;5014859;28;20214;-66
2022/08/02 01:58:03;;;;;;;9.63;5.38;;;15.00;99.90;;;;;;5030133;28;20313;-66
2022/08/02 02:00:32;;;;;;;7.40;4.90;;;15.00;99.90;;;;;;5031166;28;20275;-66
2022/08/02 02:02:59;;;;;;;6.75;5.07;;;15.00;99.90;;;;;;5015348;28;20203;-66
2022/08/02 02:05:28;;;;;;;8.60;5.35;;;14.90;99.90;;;;;;5014644;28;20200;-67
2022/08/02 02:08:00;;;;;;;8.32;5.75;;;14.90;99.90;;;;;;5014578;28;20184;-67
2022/08/02 02:10:31;;;;;;;8.70;6.15;;;15.00;99.90;;;;;;5014677;28;20180;-66
2022/08/02 02:13:02;;;;;;;8.52;6.45;;;15.00;99.90;;;;;;5014086;28;20497;-66
2022/08/02 02:15:30;;;;;;;10.27;7.07;;;14.90;99.90;;;;;;5014568;28;20195;-66
2022/08/02 02:17:58;;;;;;;11.13;7.80;;;14.90;99.90;;;;;;5014400;28;20184;-66
2022/08/02 02:20:24;;;;;;;10.18;7.38;;;14.80;99.90;;;;;;4996848;28;20210;-66
2022/08/02 02:22:51;;;;;;;11.55;8.45;;;14.90;99.90;;;;;;5013976;28;20206;-66
2022/08/02 02:25:21;;;;;;;10.13;7.45;;;14.80;99.90;;;;;;5014318;28;20191;-66
2022/08/02 02:28:29;;;;;;;10.75;7.45;;;14.80;99.90;;;;;;4996618;28;20178;-69
2022/08/02 02:31:05;;;;;;;9.00;7.32;;;14.80;99.90;;;;;;4953910;29;20185;-66
2022/08/02 02:33:32;;;;;;;12.43;6.78;;;14.80;99.90;;;;;;4954149;29;20166;-66
2022/08/02 02:36:00;;;;;;;8.40;6.20;;;14.70;99.90;;;;;;4971265;28;20215;-66
2022/08/02 02:38:30;;;;;;;7.13;6.38;;;14.70;99.90;;;;;;5013964;28;20172;-66
2022/08/02 02:41:00;;;;;;;9.23;7.07;;;14.70;99.90;;;;;;5014355;28;20176;-66
2022/08/02 02:43:29;;;;;;;9.68;6.80;;;14.60;99.90;;;;;;5014018;28;20207;-66
2022/08/02 02:45:56;;;;;;;8.65;6.85;;;14.60;99.90;;;;;;5013955;28;20199;-66
2022/08/02 02:48:22;;;;;;;8.25;6.75;;;14.60;99.90;;;;;;4996581;28;20552;-66
2022/08/02 02:50:49;;;;;;;9.20;6.43;;;14.60;99.90;;;;;;4996270;28;20649;-66
2022/08/02 02:53:17;;;;;;;7.38;6.10;;;14.60;99.90;;;;;;5013679;28;20229;-66
2022/08/02 02:55:43;;;;;;;8.88;7.00;;;14.60;99.90;;;;;;5014040;28;20294;-66
2022/08/02 02:58:09;;;;;;;7.82;6.93;;;14.60;99.90;;;;;;5014259;28;20581;-66
2022/08/02 03:03:21;;;;;;;8.73;7.53;;;14.50;99.90;;;;;;5014078;28;20203;-66
2022/08/02 03:05:47;;;;;;;7.97;6.43;;;14.50;99.90;;;;;;5013584;28;20208;-66
2022/08/02 03:08:13;;;;;;;8.40;7.43;;;14.50;99.90;;;;;;5013570;28;20183;-67
2022/08/02 03:10:39;;;;;;;9.40;7.25;;;14.40;99.90;;;;;;4995971;28;20179;-66
2022/08/02 03:13:05;;;;;;;8.32;6.90;;;14.40;99.90;;;;;;5013547;28;20183;-66
2022/08/02 03:15:31;;;;;;;8.00;7.07;;;14.30;99.90;;;;;;5013440;28;20195;-67
2022/08/02 03:17:57;;;;;;;7.70;6.60;;;14.30;99.90;;;;;;5028761;28;20204;-66
2022/08/02 03:20:22;;;;;;;7.47;6.78;;;14.30;99.90;;;;;;4995870;28;20215;-67
2022/08/02 03:22:48;;;;;;;7.00;6.30;;;14.30;99.90;;;;;;5013397;28;20200;-66
2022/08/02 03:25:16;;;;;;;8.63;7.15;;;14.30;99.90;;;;;;5001596;28;20196;-66
2022/08/02 03:27:42;;;;;;;8.80;7.82;;;14.30;99.90;;;;;;5020062;28;20179;-67
2022/08/02 03:30:10;;;;;;;7.53;6.72;;;14.30;99.90;;;;;;5020149;28;20172;-67
2022/08/02 03:32:38;;;;;;;8.68;7.07;;;14.20;99.90;;;;;;5019972;28;20202;-67
2022/08/02 03:35:06;;;;;;;7.55;6.75;;;14.20;99.90;;;;;;5035151;28;20203;-67
2022/08/02 03:37:34;;;;;;;8.18;6.72;;;14.10;99.90;;;;;;5019755;28;20263;-67
2022/08/02 03:40:01;;;;;;;7.68;6.85;;;14.10;99.90;;;;;;5020192;28;20585;-67
2022/08/02 03:42:27;;;;;;;7.65;6.93;;;14.10;99.90;;;;;;5019997;28;20199;-67
2022/08/02 03:44:55;;;;;;;8.18;6.63;;;14.00;99.90;;;;;;5019887;28;20196;-67
2022/08/02 03:47:22;;;;;;;7.80;7.00;;;14.00;99.90;;;;;;5002460;28;20168;-67
2022/08/02 03:49:48;;;;;;;7.55;6.85;;;13.90;99.90;;;;;;5020071;28;20176;-67
2022/08/02 03:52:15;;;;;;;7.55;6.20;;;13.90;99.90;;;;;;5019743;28;20176;-67
2022/08/02 03:54:41;;;;;;;7.35;6.47;;;13.90;99.90;;;;;;5019651;28;20172;-67
2022/08/02 03:57:06;;;;;;;11.02;6.07;;;13.80;99.90;;;;;;5019738;28;20191;-67
2022/08/02 03:59:45;;;;;;;7.20;5.90;;;13.70;99.90;;;;;;5019815;28;20172;-67
2022/08/02 04:02:12;;;;;;;6.95;5.63;;;13.80;99.90;;;;;;5019941;28;20217;-67
2022/08/02 04:04:39;;;;;;;8.68;6.00;;;13.80;99.90;;;;;;5001845;28;20649;-67
2022/08/02 04:07:05;;;;;;;6.28;5.68;;;13.80;99.90;;;;;;5019424;28;20178;-67
2022/08/02 04:09:31;;;;;;;8.48;6.60;;;13.80;99.90;;;;;;5002014;28;20182;-67
2022/08/02 04:11:57;;;;;;;8.32;6.72;;;13.90;99.90;;;;;;5002059;28;20167;-67
2022/08/02 04:14:23;;;;;;;10.85;6.97;;;13.90;99.90;;;;;;5019547;28;20652;-67
2022/08/02 04:16:56;;;;;;;9.90;7.70;;;13.90;99.90;;;;;;5001920;28;20207;-66
2022/08/02 04:19:27;;;;;;;12.50;7.90;;;14.00;99.90;;;;;;5019853;28;20160;-67
2022/08/02 04:21:54;;;;;;;10.10;8.32;;;14.00;99.90;;;;;;5001547;28;20210;-67
2022/08/02 04:24:25;;;;;;;11.32;7.25;;;14.00;99.90;;;;;;5019512;28;20203;-67
2022/08/02 04:26:54;;;;;;;14.90;8.65;;;14.10;99.90;;;;;;5034679;28;20699;-67
2022/08/02 04:29:22;;;;;;;12.57;7.85;;;14.10;99.90;;;;;;5019658;28;20700;-67
2022/08/02 04:31:49;;;;;;;10.07;7.75;;;14.10;99.90;;;;;;5019417;28;20183;-67
2022/08/02 04:34:15;;;;;;;12.52;7.10;;;14.10;99.90;;;;;;5019433;28;20188;-67
2022/08/02 04:36:41;;;;;;;12.70;8.07;;;14.10;99.90;;;;;;5015743;28;20202;-67
2022/08/02 04:39:07;;;;;;;11.20;8.40;;;14.10;99.90;;;;;;5016612;28;20180;-67
2022/08/02 04:41:42;;;;;;;9.65;7.70;;;14.10;99.90;;;;;;4998640;28;20262;-67
2022/08/02 04:44:08;;;;;;;10.80;7.93;;;14.10;99.90;;;;;;5016190;28;20175;-67
2022/08/02 04:46:35;;;;;;;12.90;8.38;;;14.10;99.90;;;;;;5016183;28;20207;-66
2022/08/02 04:49:01;;;;;;;9.52;7.32;;;14.10;99.90;;;;;;5016137;28;20172;-65
2022/08/02 04:51:27;;;;;;;10.27;7.18;;;14.10;99.90;;;;;;5016072;28;20327;-65
2022/08/02 04:53:53;;;;;;;10.05;7.13;;;14.10;99.90;;;;;;5016035;28;20176;-65
2022/08/02 04:56:19;;;;;;;10.13;7.90;;;14.10;99.90;;;;;;5016213;28;20262;-65
2022/08/02 04:58:44;;;;;;;10.27;7.30;;;14.10;99.90;;;;;;4998350;28;20187;-65
2022/08/02 05:01:10;;;;;;;10.63;7.90;;;14.10;99.90;;;;;;5015880;28;20179;-65
2022/08/02 05:03:36;;;;;;;15.25;8.00;;;14.10;99.90;;;;;;5016157;28;20295;-65
2022/08/02 05:06:02;;;;;;;12.32;8.00;;;14.20;99.90;;;;;;5015591;28;20208;-65
2022/08/02 05:08:28;;;;;;;12.65;8.25;;;14.30;99.90;;;;;;5015458;28;20164;-65
2022/08/02 05:10:54;;;;;;;12.68;8.00;;;14.30;99.90;;;;;;5015731;28;20672;-65
2022/08/02 05:13:20;;;;;;;14.20;8.98;;;14.30;99.90;;;;;;5015554;28;20188;-65
2022/08/02 05:15:52;;;;;;;13.07;8.65;;;14.40;99.90;;;;;;5015871;28;20200;-65
2022/08/02 05:18:17;;;;;;;14.50;9.63;;;14.40;99.90;;;;;;5015854;28;20241;-65
2022/08/02 05:20:43;;;;;;;11.88;8.75;;;14.40;99.90;;;;;;5016036;28;20213;-65
2022/08/02 05:23:09;;;;;;;15.68;7.50;;;14.40;99.90;;;;;;5015388;28;20211;-66
2022/08/02 05:25:34;;;;;;;10.10;7.32;;;14.50;99.90;;;;;;5015412;28;20219;-66
2022/08/02 05:28:00;;;;;;;9.27;7.15;;;14.60;99.90;;;;;;5015796;28;20256;-65
2022/08/02 05:30:26;;;;;;;9.73;7.22;;;14.60;99.90;;;;;;5015350;28;20172;-65
2022/08/02 05:32:52;;;;;;;10.10;7.20;;;14.70;99.90;;;;;;5015279;28;20537;-65
2022/08/02 05:35:22;;;;;;;9.65;7.68;;;14.80;99.90;;;;;;4997516;28;20214;-65
2022/08/02 05:37:48;;;;;;;10.50;7.95;;;14.80;99.90;;;;;;5015611;28;20525;-65
2022/08/02 05:40:15;;;;;;;11.13;8.30;;;14.90;99.90;;;;;;5015162;28;20247;-65
2022/08/02 05:42:41;;;;;;;10.43;8.20;;;15.00;99.90;;;;;;5015613;28;20246;-65
2022/08/02 05:45:07;;;;;;;11.50;8.00;;;15.10;99.90;;;;;;5015125;28;20700;-65
2022/08/02 05:47:33;;;;;;;12.38;9.27;;;15.10;99.90;;;;;;5013906;28;20226;-65
2022/08/02 05:49:59;;;;;;;11.82;8.38;;;15.20;99.90;;;;;;5015089;28;20645;-65
2022/08/02 05:52:40;;;;;;;10.73;8.35;;;15.30;99.90;;;;;;5014908;28;20180;-65
2022/08/02 05:55:12;;;;;;;9.80;7.53;;;15.30;99.90;;;;;;5015169;28;20196;-65
2022/08/02 05:58:02;;;;;;;9.57;8.55;;;15.30;99.90;;;;;;5015548;28;20217;-65
2022/08/02 06:00:32;;;;;;;10.82;8.00;;;15.30;99.90;;;;;;5014890;28;20655;-65
2022/08/02 06:03:00;;;;;;;13.15;8.73;;;15.30;99.90;;;;;;5015365;28;20234;-65
2022/08/02 06:05:31;;;;;;;12.15;8.35;;;15.40;99.90;;;;;;5014766;28;20199;-65
2022/08/02 06:07:58;;;;;;;14.15;8.32;;;15.30;99.90;;;;;;5014791;28;20205;-65
2022/08/02 06:10:27;;;;;;;15.43;8.80;;;15.40;99.90;;;;;;5014619;28;20641;-65
2022/08/02 06:13:11;;;;;;;12.52;8.70;;;15.50;99.90;;;;;;5030044;28;20191;-65
2022/08/02 06:15:38;;;;;;;10.20;8.30;;;15.60;99.90;;;;;;5015129;28;20187;-66
2022/08/02 06:18:06;;;;;;;12.27;8.95;;;15.70;99.90;;;;;;4997799;28;20646;-66
2022/08/02 06:20:36;;;;;;;10.00;8.57;;;15.80;99.90;;;;;;5017089;28;20182;-66
2022/08/02 06:23:03;;;;;;;12.00;8.35;;;15.80;99.90;;;;;;5016431;28;20188;-66
2022/08/02 06:25:30;;;;;;;7.85;6.93;;;16.00;99.90;;;;;;5017134;28;20286;-67
2022/08/02 06:27:58;;;;;;;12.07;7.82;;;16.10;99.90;;;;;;5017542;28;20172;-70
2022/08/02 06:30:24;;;;;;;8.73;7.30;;;16.20;99.90;;;;;;5016925;28;20164;-67
2022/08/02 06:32:51;;;;;;;9.23;7.70;;;16.30;99.90;;;;;;5016198;28;20187;-67
2022/08/02 06:35:17;;;;;;;10.25;7.90;;;16.40;99.90;;;;;;5030723;28;20207;-67
2022/08/02 06:38:02;;;;;;;10.15;7.97;;;16.50;99.90;;;;;;5014675;28;20187;-67
2022/08/02 06:40:35;;;;;;;13.32;9.00;;;16.60;99.90;;;;;;5014742;28;20187;-67
2022/08/02 06:43:12;;;;;;;13.35;8.18;;;16.60;99.90;;;;;;5014666;28;20199;-68
2022/08/02 06:45:38;;;;;;;10.80;8.90;;;16.70;99.90;;;;;;5014293;28;20191;-67
2022/08/02 06:48:06;;;;;;;11.18;8.25;;;16.80;99.90;;;;;;5029591;28;20176;-67
2022/08/02 06:50:32;;;;;;;12.43;9.02;;;16.90;99.90;;;;;;5014368;28;20182;-67
2022/08/02 06:52:59;;;;;;;12.55;8.95;;;17.10;99.90;;;;;;5014000;28;20540;-67
2022/08/02 06:55:26;;;;;;;11.13;8.90;;;17.20;99.90;;;;;;4996393;28;20235;-68
2022/08/02 06:57:52;;;;;;;9.05;7.47;;;17.30;99.90;;;;;;4996513;28;20164;-68
2022/08/02 07:00:17;;;;;;;10.23;9.15;;;17.40;99.90;;;;;;5013616;28;20225;-67
2022/08/02 07:02:43;;;;;;;9.35;8.00;;;17.50;99.90;;;;;;5013946;28;20730;-67
2022/08/02 07:05:09;;;;;;;9.65;7.88;;;17.60;99.90;;;;;;5014168;28;20195;-67
2022/08/02 07:07:35;;;;;;;11.50;7.78;;;17.70;99.90;;;;;;5013835;28;20168;-68
2022/08/02 07:10:01;;;;;;;9.15;6.75;;;17.80;99.90;;;;;;5014218;28;20251;-68
2022/08/02 07:12:31;;;;;;;10.40;7.20;;;17.90;99.90;;;;;;4996142;28;20611;-67
2022/08/02 07:14:58;;;;;;;9.82;7.45;;;18.00;99.90;;;;;;5013762;28;20592;-68
2022/08/02 07:17:25;;;;;;;7.88;6.55;;;18.10;99.90;;;;;;5014011;28;20675;-68
2022/08/02 07:19:50;;;;;;;9.65;7.65;;;18.20;99.90;;;;;;5013909;28;20230;-68
2022/08/02 07:22:18;;;;;;;9.50;7.35;;;18.30;99.90;;;;;;5013855;28;20203;-66
2022/08/02 07:24:44;;;;;;;7.93;6.65;;;18.40;99.90;;;;;;4995942;28;20214;-66
2022/08/02 07:27:09;;;;;;;11.95;8.70;;;18.50;99.90;;;;;;5013651;28;20174;-66
2022/08/02 07:29:35;;;;;;;9.77;7.38;;;18.60;99.90;;;;;;5013549;28;20259;-66
2022/08/02 07:32:01;;;;;;;10.93;7.70;;;18.70;99.90;;;;;;5013452;28;20195;-66
2022/08/02 07:34:27;;;;;;;9.82;8.15;;;18.80;99.90;;;;;;5013850;28;20227;-66
2022/08/02 07:36:52;;;;;;;9.65;7.55;;;18.90;99.90;;;;;;5013313;28;20488;-66
2022/08/02 07:39:18;;;;;;;11.48;7.93;;;19.00;99.90;;;;;;4995671;28;20214;-66
2022/08/02 07:41:45;;;;;;;12.30;7.47;;;19.10;99.90;;;;;;5013924;28;20215;-67
2022/08/02 07:44:11;;;;;;;9.40;5.65;;;19.10;99.90;;;;;;4995763;28;20191;-66
2022/08/02 07:46:37;;;;;;;8.93;6.63;;;19.20;99.90;;;;;;5013780;28;20191;-66
2022/08/02 07:49:02;;;;;;;13.18;6.10;;;19.30;99.90;;;;;;5013302;28;20199;-66
2022/08/02 07:51:30;;;;;;;9.73;6.72;;;19.40;99.90;;;;;;4995669;28;20326;-66
2022/08/02 07:53:56;;;;;;;12.25;7.00;;;19.50;99.90;;;;;;4995337;28;20176;-66
2022/08/02 07:56:21;;;;;;;7.72;5.45;;;19.60;99.90;;;;;;5013232;28;20207;-66
2022/08/02 07:58:48;;;;;;;7.85;5.82;;;19.80;99.90;;;;;;5013199;28;20179;-66
2022/08/02 08:01:14;;;;;;;6.75;5.10;;;19.90;99.90;;;;;;4995566;28;20176;-66
2022/08/02 08:03:39;;;;;;;7.45;4.93;;;20.00;99.90;;;;;;5013040;28;20218;-66
2022/08/02 08:06:05;;;;;;;7.18;5.30;;;20.10;99.90;;;;;;5013056;28;20282;-66
2022/08/02 08:08:32;;;;;;;7.93;4.65;;;20.20;99.90;;;;;;4995349;28;20263;-66
2022/08/02 08:10:58;;;;;;;7.28;4.05;;;20.40;99.90;;;;;;5014240;28;20164;-66
2022/08/02 08:13:24;;;;;;;9.90;4.78;;;20.50;99.90;;;;;;5016924;28;20609;-66
2022/08/02 08:15:49;;;;;;;6.75;4.60;;;20.60;99.90;;;;;;5017007;28;20196;-66
2022/08/02 08:18:15;;;;;;;6.88;4.25;;;20.60;99.90;;;;;;5016975;28;20599;-67
2022/08/02 08:20:41;;;;;;;6.75;3.85;;;20.70;99.90;;;;;;5016615;28;20243;-67
2022/08/02 08:23:07;;;;;;;4.88;3.65;;;20.80;99.90;;;;;;5016489;28;20227;-66
2022/08/02 08:25:33;;;;;;;4.68;3.60;;;20.90;99.90;;;;;;5016789;28;20669;-66
2022/08/02 08:27:58;;;;;;;7.72;3.65;;;21.10;99.90;;;;;;4999106;28;20191;-66
2022/08/02 08:30:24;;;;;;;4.88;3.90;;;21.20;99.90;;;;;;5016655;28;20168;-66
2022/08/02 08:32:50;;;;;;;5.90;3.45;;;21.40;99.90;;;;;;5016788;28;20626;-67
2022/08/02 08:35:16;;;;;;;4.32;3.30;;;21.50;99.90;;;;;;5016351;28;20206;-66
2022/08/02 08:37:42;;;;;;;7.30;2.83;;;21.70;99.90;;;;;;5016389;28;20180;-67
2022/08/02 08:40:09;;;;;;;8.75;2.90;;;21.70;99.90;;;;;;5016450;28;20182;-67
2022/08/02 08:42:37;;;;;;;2.97;2.50;;;21.80;99.90;;;;;;5016560;28;20574;-67
2022/08/02 08:45:04;;;;;;;3.25;2.22;;;21.80;99.90;;;;;;5016142;28;20308;-67
2022/08/02 08:47:38;;;;;;;3.35;2.40;;;21.90;99.90;;;;;;5016179;28;20180;-67
2022/08/02 08:50:07;;;;;;;3.30;2.38;;;22.00;99.90;;;;;;5016183;28;20168;-67
2022/08/02 08:52:47;;;;;;;3.22;2.30;;;22.20;99.90;;;;;;4998291;28;20180;-67
2022/08/02 08:55:14;;;;;;;4.28;2.35;;;22.40;99.90;;;;;;5016246;28;20219;-67
2022/08/02 08:57:42;;;;;;;4.53;2.40;;;22.50;99.90;;;;;;5016350;28;20200;-67
2022/08/02 09:00:11;;;;;;;2.83;2.22;;;22.60;99.90;;;;;;4998343;28;20176;-67
2022/08/02 09:02:40;;;;;;;2.38;2.17;;;22.80;99.90;;;;;;4998254;28;20754;-67
2022/08/02 09:05:09;;;;;;;4.15;2.38;;;22.90;99.90;;;;;;4998103;28;20681;-67
2022/08/02 09:07:35;;;;;;;5.45;2.80;;;23.00;99.90;;;;;;5015665;28;20204;-67
2022/08/02 09:10:21;;;;;;;3.78;2.05;;;23.20;99.90;;;;;;5015700;28;20199;-67
2022/08/02 09:13:06;;;;;;;4.15;2.50;;;23.40;99.90;;;;;;4997902;28;20645;-67
2022/08/02 09:15:32;;;;;;;4.28;3.03;;;23.60;99.90;;;;;;5030869;28;20258;-67
2022/08/02 09:17:57;;;;;;;4.00;2.60;;;23.80;99.90;;;;;;5015677;28;20175;-67
2022/08/02 09:20:23;;;;;;;4.35;2.63;;;23.90;99.90;;;;;;5016124;28;20180;-67
2022/08/02 09:23:05;;;;;;;3.67;2.50;;;23.90;99.90;;;;;;4997408;28;20658;-67
2022/08/02 09:25:32;;;;;;;4.28;2.65;;;24.10;99.90;;;;;;5015469;28;20621;-65
2022/08/02 09:27:58;;;;;;;6.20;2.22;;;24.20;99.90;;;;;;5015528;28;20250;-67
2022/08/02 09:30:26;;;;;;;4.28;2.03;;;24.30;99.90;;;;;;5015618;28;20690;-64
2022/08/02 09:32:52;;;;;;;4.43;2.55;;;24.40;99.90;;;;;;5030570;28;20226;-67
2022/08/02 09:35:38;;;;;;;3.97;2.55;;;24.50;99.90;;;;;;5015604;28;20338;-67
2022/08/02 09:38:12;;;;;;;2.78;2.45;;;24.60;99.90;;;;;;5015110;28;20644;-67
2022/08/02 09:40:39;;;;;;;3.15;2.80;;;24.70;99.90;;;;;;4997618;28;20183;-67
2022/08/02 09:43:07;;;;;;;5.65;2.42;;;24.80;99.90;;;;;;5030273;28;20211;-67
2022/08/02 09:45:34;;;;;;;2.88;2.38;;;24.90;99.90;;;;;;4997437;28;20211;-67
2022/08/02 09:48:07;;;;;;;5.57;2.50;;;25.10;99.90;;;;;;5015120;28;20650;-66
2022/08/02 09:50:39;;;;;;;2.92;2.25;;;25.10;99.90;;;;;;5015026;28;20176;-66
2022/08/02 09:53:12;;;;;;;4.35;2.63;;;25.10;99.90;;;;;;5014958;28;20157;-66
2022/08/02 09:55:38;;;;;;;3.80;2.50;;;25.20;99.90;;;;;;5014777;28;20208;-65
2022/08/02 09:58:20;;;;;;;4.90;2.60;;;25.30;99.90;;;;;;5014894;28;20171;-65
2022/08/02 10:01:00;;;;;;;2.67;2.45;;;25.30;99.90;;;;;;5015318;28;20261;-65
2022/08/02 10:03:26;;;;;;;3.80;2.22;;;25.30;99.90;;;;;;5014680;28;20199;-65
2022/08/02 10:05:54;;;;;;;3.72;2.60;;;25.30;99.90;;;;;;5014734;28;20199;-65
2022/08/02 10:08:21;;;;;;;4.05;2.58;;;25.10;99.90;;;;;;4997745;28;20560;-65
2022/08/02 10:10:47;;;;;;;2.80;2.55;;;25.10;99.90;;;;;;5014918;28;20207;-65
2022/08/02 10:13:14;;;;;;;3.15;2.50;;;25.10;99.90;;;;;;5014665;28;20176;-65
2022/08/02 10:15:40;;;;;;;3.58;2.55;;;25.20;99.90;;;;;;5014669;28;20257;-65
2022/08/02 10:18:07;;;;;;;6.45;2.35;;;25.40;99.90;;;;;;5014581;28;20184;-65
2022/08/02 10:20:43;;;;;;;3.92;2.80;;;25.50;99.90;;;;;;5029691;28;20171;-65
2022/08/02 10:23:12;;;;;;;3.63;2.78;;;25.50;99.90;;;;;;5014841;28;20569;-65
2022/08/02 10:25:38;;;;;;;2.83;2.50;;;25.40;99.90;;;;;;5014421;28;20188;-66
2022/08/02 10:28:08;;;;;;;5.70;2.88;;;25.40;99.90;;;;;;5014808;28;20629;-67
2022/08/02 10:30:39;;;;;;;3.30;2.40;;;25.50;99.90;;;;;;5014584;28;20179;-65
2022/08/02 10:33:07;;;;;;;3.33;2.60;;;25.50;99.90;;;;;;5014165;28;20219;-66
2022/08/02 10:35:36;;;;;;;5.00;2.63;;;25.50;99.90;;;;;;5014042;28;20204;-66
2022/08/02 10:38:06;;;;;;;3.17;2.75;;;25.60;99.90;;;;;;4996475;28;20183;-66
2022/08/02 10:40:52;;;;;;;3.25;2.50;;;25.30;99.90;;;;;;5014804;28;20558;-66
2022/08/02 10:43:30;;;;;;;5.82;2.72;;;25.00;99.90;;;;;;5014505;28;20199;-66
2022/08/02 10:46:34;;;;;;;4.05;2.75;;;24.90;99.90;;;;;;5014076;28;20191;-69
2022/08/02 10:49:14;;;;;;;4.68;2.63;;;25.00;99.90;;;;;;4996610;28;20181;-72
2022/08/02 10:52:01;;;;;;;5.82;2.92;;;25.20;99.90;;;;;;5014997;28;20180;-73
2022/08/02 10:54:32;;;;;;;5.00;2.58;;;25.30;99.90;;;;;;4997016;28;20172;-72
2022/08/02 10:56:59;;;;;;;5.18;2.72;;;25.40;99.90;;;;;;5014220;28;20219;-71
2022/08/02 10:59:32;;;;;;;3.58;2.75;;;25.40;99.90;;;;;;5014776;28;20242;-68
2022/08/02 11:02:00;;;;;;;4.70;2.60;;;25.30;99.90;;;;;;5014474;28;20199;-67
2022/08/02 11:04:35;;;;;;;3.67;2.67;;;25.50;99.90;;;;;;5014098;28;20171;-68
2022/08/02 11:07:16;;;;;;;4.63;2.60;;;25.80;99.90;;;;;;5013977;28;20191;-68
2022/08/02 11:09:43;;;;;;;3.25;2.40;;;25.80;99.90;;;;;;5013650;28;20159;-68
2022/08/02 11:12:15;;;;;;;3.70;2.38;;;25.80;99.90;;;;;;4996484;28;20322;-68
2022/08/02 11:14:58;;;;;;;4.13;2.72;;;25.80;99.90;;;;;;5014388;28;20650;-70
2022/08/02 11:17:24;;;;;;;3.25;2.50;;;25.90;99.90;;;;;;5014412;28;20168;-67
2022/08/02 11:20:10;;;;;;;4.78;2.80;;;26.10;99.90;;;;;;5013919;28;20266;-72
2022/08/02 11:22:40;;;;;;;4.93;2.70;;;26.20;99.90;;;;;;4996409;28;20215;-70
2022/08/02 11:25:21;;;;;;;4.25;2.78;;;26.10;99.90;;;;;;4995948;28;20203;-71
2022/08/02 11:27:48;;;;;;;6.25;2.72;;;26.00;99.90;;;;;;5013949;28;20210;-69
2022/08/02 11:30:14;;;;;;;3.15;2.42;;;26.10;99.90;;;;;;5013775;28;20179;-69
2022/08/02 11:32:40;;;;;;;3.53;2.30;;;26.30;99.90;;;;;;5013681;28;20199;-65
2022/08/02 11:35:07;;;;;;;3.40;2.78;;;26.60;99.90;;;;;;5013492;28;20262;-65
2022/08/02 11:37:38;;;;;;;2.75;2.40;;;26.80;99.90;;;;;;4995907;28;20183;-69
2022/08/02 11:40:08;;;;;;;5.88;3.20;;;26.90;99.90;;;;;;4996090;28;20532;-69
2022/08/02 11:42:36;;;;;;;3.30;2.58;;;26.80;99.90;;;;;;5013933;28;20287;-69
2022/08/02 11:45:04;;;;;;;2.58;2.33;;;26.90;99.90;;;;;;5015643;28;20758;-69
2022/08/02 11:47:30;;;;;;;2.38;2.17;;;27.00;99.90;;;;;;5018436;28;20187;-70
2022/08/02 11:50:09;;;;;;;5.15;2.35;;;27.20;99.90;;;;;;5018800;28;20176;-68
2022/08/02 11:52:36;;;;;;;3.28;2.50;;;27.30;99.90;;;;;;5018177;28;20176;-67
2022/08/02 11:55:05;;;;;;;3.17;2.67;;;27.30;99.90;;;;;;4999613;28;20199;-64
2022/08/02 11:57:30;;;;;;;3.30;2.53;;;27.20;99.90;;;;;;5018036;28;20629;-64
2022/08/02 11:59:56;;;;;;;4.13;2.72;;;27.30;99.90;;;;;;5000155;28;20194;-66
2022/08/02 12:02:27;;;;;;;4.80;2.60;;;27.50;99.90;;;;;;5017831;28;20607;-66
2022/08/02 12:04:56;;;;;;;3.20;2.60;;;27.50;99.90;;;;;;5032582;28;20184;-66
2022/08/02 12:07:30;;;;;;;4.43;2.70;;;27.40;99.90;;;;;;5017497;28;20219;-65
2022/08/02 12:10:12;;;;;;;6.30;3.03;;;27.20;99.90;;;;;;5017265;28;20172;-65
2022/08/02 12:12:55;;;;;;;4.78;2.65;;;27.00;99.90;;;;;;5017771;28;20180;-66
2022/08/02 12:15:40;;;;;;;2.70;2.50;;;26.90;99.90;;;;;;5032534;28;20290;-66
2022/08/02 12:21:18;;;;;;;3.92;2.88;;;27.10;99.90;;;;;;5018281;28;20163;-66
2022/08/02 12:23:44;;;;;;;3.22;2.70;;;27.30;99.90;;;;;;5017337;28;20219;-66
2022/08/02 12:26:10;;;;;;;5.88;2.83;;;27.40;99.90;;;;;;4999592;28;20669;-67
2022/08/02 12:28:38;;;;;;;2.97;2.58;;;27.60;99.90;;;;;;5017943;28;20187;-68
2022/08/02 12:31:05;;;;;;;4.50;2.80;;;27.50;99.90;;;;;;5000212;28;20652;-68
2022/08/02 12:33:44;;;;;;;5.75;2.88;;;27.20;99.90;;;;;;5017811;28;20175;-67
2022/08/02 12:36:28;;;;;;;4.70;3.67;;;27.20;99.90;;;;;;5016916;28;20253;-67
2022/08/02 12:38:59;;;;;;;4.82;3.30;;;27.10;99.90;;;;;;4999751;28;20179;-68
2022/08/02 12:41:27;;;;;;;5.00;3.08;;;27.00;99.90;;;;;;5017107;28;20168;-67
2022/08/02 12:43:54;;;;;;;4.15;3.20;;;27.10;99.90;;;;;;5018011;28;20230;-68
2022/08/02 12:46:21;;;;;;;4.07;3.03;;;27.20;99.90;;;;;;5019218;28;20188;-67
2022/08/02 12:48:49;;;;;;;3.15;2.80;;;27.30;99.90;;;;;;5018479;28;20168;-67
2022/08/02 12:51:29;;;;;;;5.60;3.13;;;27.50;99.90;;;;;;5017979;28;20180;-66
2022/08/02 12:54:11;;;;;;;4.75;3.10;;;27.70;99.90;;;;;;5018713;28;20185;-66
2022/08/02 12:56:38;;;;;;;5.22;3.55;;;27.80;99.90;;;;;;5034816;28;20219;-66
2022/08/02 12:59:04;;;;;;;5.43;3.38;;;28.00;99.90;;;;;;5016836;28;20179;-66
2022/08/02 13:01:30;;;;;;;4.30;2.70;;;27.90;99.90;;;;;;5016850;28;20172;-66